Time;durP1;ratioP1;P1;durP2;ratioP2;P2;SDS_P1;SDS_P2;PMS_P1;PMS_P2;Temp;Humidity;BMP_temperature;BMP_pressure;BME280_temperature;BME280_humidity;BME280_pressure;Samples;Min_cycle;Max_cycle;Signal;HPM_P1;HPM_P2
2022/04/05 00:01:12;;;;;;;0.35;0.35;;;;;;;7.14;86.23;98896.88;5007747;28;20207;-76
2022/04/05 00:03:40;;;;;;;0.40;0.40;;;;;;;7.17;86.29;98885.47;5011421;28;20228;-77
2022/04/05 00:06:09;;;;;;;0.30;0.30;;;;;;;7.15;86.54;98877.59;5017535;28;20232;-76
2022/04/05 00:08:36;;;;;;;0.40;0.40;;;7.50;99.90;;;7.16;86.30;98889.88;5010526;28;20227;-76
2022/04/05 00:11:05;;;;;;;0.28;0.28;;;;;;;7.11;86.72;98878.47;5016750;28;20215;-76
2022/04/05 00:13:33;;;;;;;0.20;0.20;;;;;;;7.11;87.30;98882.88;4998978;28;20239;-77
2022/04/05 00:16:01;;;;;;;0.30;0.30;;;;;;;7.07;87.45;98885.50;5009217;28;20571;-76
2022/04/05 00:18:29;;;;;;;0.30;0.30;;;;;;;7.09;87.87;98897.75;5011150;28;20204;-76
2022/04/05 00:20:59;;;;;;;0.20;0.20;;;;;;;7.08;88.23;98899.53;5020974;28;20668;-76
2022/04/05 00:23:27;;;;;;;0.43;0.43;;;;;;;7.06;88.59;98901.28;5011277;28;20398;-76
2022/04/05 00:25:55;;;;;;;0.40;0.40;;;;;;;7.05;88.95;98902.16;5025644;28;20228;-77
2022/04/05 00:28:23;;;;;;;0.40;0.40;;;;;;;7.06;89.47;98910.03;5005422;28;20791;-76
2022/04/05 00:30:52;;;;;;;0.40;0.40;;;;;;;7.12;88.91;98892.50;5009779;28;20208;-76
2022/04/05 00:33:20;;;;;;;10.20;2.97;;;;;;;7.13;88.91;98894.25;5109585;22;20215;-77
2022/04/05 00:35:48;;;;;;;0.40;0.40;;;;;;;7.13;88.87;98902.13;5000039;28;20235;-75
2022/04/05 00:38:17;;;;;;;0.30;0.30;;;;;;;7.07;89.66;98916.16;5003952;28;20204;-75
2022/04/05 00:40:45;;;;;;;0.20;0.20;;;;;;;7.05;90.04;98918.78;5008473;28;20583;-77
2022/04/05 00:43:13;;;;;;;0.22;0.22;;;;;;;7.12;89.85;98934.56;4989213;28;20204;-76
2022/04/05 00:45:41;;;;;;;0.30;0.30;;;;;;;7.09;90.11;98935.44;4986971;28;20228;-77
2022/04/05 00:48:09;;;;;;;0.30;0.30;;;;;;;7.15;90.13;98927.53;4979053;28;20209;-75
2022/04/05 00:50:38;;;;;;;0.30;0.30;;;7.20;99.90;;;7.12;90.79;98929.31;4968042;28;20216;-73
2022/04/05 00:53:07;;;;;;;0.20;0.20;;;;;;;7.11;91.04;98930.19;4970612;28;20205;-72
2022/04/05 00:55:36;;;;;;;0.28;0.28;;;;;;;7.09;91.79;98940.69;4973577;28;20244;-72
2022/04/05 00:58:04;;;;;;;0.30;0.30;;;;;;;7.09;91.63;98929.31;4969734;28;20204;-74
2022/04/05 01:00:33;;;;;;;0.77;0.77;;;;;;;7.06;92.46;98943.31;4979058;28;20196;-72
2022/04/05 01:03:01;;;;;;;0.40;0.40;;;;;;;7.12;92.22;98951.22;4987189;28;20239;-71
2022/04/05 01:05:30;;;;;;;0.50;0.50;;;;;;;7.10;92.55;98945.06;4985329;28;20228;-73
2022/04/05 01:08:02;;;;;;;0.40;0.40;;;7.10;99.90;;;7.11;93.15;98941.56;4957225;28;20213;-71
2022/04/05 01:10:30;;;;;;;0.30;0.30;;;;;;;7.06;93.88;98961.72;4973188;28;20223;-72
2022/04/05 01:12:58;;;;;;;0.40;0.40;;;;;;;7.03;94.58;98959.09;4983582;28;20216;-72
2022/04/05 01:15:26;;;;;;;0.55;0.52;;;;;;;7.02;95.59;98983.63;4983408;28;20220;-74
2022/04/05 01:17:55;;;;;;;0.30;0.30;;;;;;;7.01;95.71;98980.13;4986868;28;20224;-75
2022/04/05 01:20:23;;;;;;;0.30;0.30;;;;;;;6.96;96.55;98974.00;4986250;28;20197;-74
2022/04/05 01:22:55;;;;;;;0.40;0.40;;;7.00;99.90;;;6.92;97.68;98992.38;4983780;28;20677;-73
2022/04/05 01:25:24;;;;;;;0.30;0.30;;;;;;;6.88;98.82;98996.75;4982637;28;20419;-72
2022/04/05 01:27:53;;;;;;;0.30;0.30;;;;;;;6.89;99.57;99013.41;4982653;28;20232;-73
2022/04/05 01:30:21;;;;;;;0.50;0.50;;;;;;;6.88;100.00;99023.03;4986630;28;20204;-74
2022/04/05 01:32:49;;;;;;;0.38;0.38;;;6.90;99.90;;;6.85;100.00;99012.53;4980810;28;20220;-72
2022/04/05 01:35:18;;;;;;;0.20;0.20;;;;;;;6.79;100.00;99017.78;4981375;28;20739;-72
2022/04/05 01:37:46;;;;;;;0.30;0.30;;;;;;;6.79;100.00;99038.78;4986494;28;20204;-73
2022/04/05 01:40:14;;;;;;;0.20;0.20;;;;;;;6.76;100.00;99041.41;4977849;28;20228;-76
2022/04/05 01:42:42;;;;;;;0.60;0.60;;;;;;;6.77;100.00;99068.56;4981055;28;20224;-75
2022/04/05 01:45:10;;;;;;;0.20;0.20;;;;;;;6.71;100.00;99059.78;4988868;28;20220;-72
2022/04/05 01:47:39;;;;;;;0.20;0.20;;;;;;;6.76;100.00;99056.31;4966500;28;20229;-72
2022/04/05 01:50:07;;;;;;;0.30;0.30;;;;;;;6.70;100.00;99050.16;4959130;28;20213;-74
2022/04/05 01:52:35;;;;;;;0.30;0.30;;;;;;;6.74;100.00;99064.19;4981186;28;20221;-77
2022/04/05 01:55:06;;;;;;;0.20;0.20;;;6.70;99.90;;;6.74;100.00;99079.94;4985055;28;20715;-73
2022/04/05 01:57:34;;;;;;;0.30;0.30;;;;;;;6.72;100.00;99082.56;4980338;28;20209;-72
2022/04/05 02:00:06;;;;;;;0.30;0.30;;;6.80;99.90;;;6.69;100.00;99076.44;4981868;28;20561;-72
2022/04/05 02:02:43;;;;;;;0.30;0.30;;;;;;;6.70;100.00;99083.44;4980582;28;20216;-75
2022/04/05 02:05:11;;;;;;;0.20;0.20;;;;;;;6.68;100.00;99086.06;4989006;28;20228;-72
2022/04/05 02:07:39;;;;;;;0.20;0.20;;;;;;;6.71;100.00;99101.81;4989741;28;20239;-75
2022/04/05 02:10:08;;;;;;;0.20;0.20;;;6.60;99.90;;;6.67;100.00;99092.19;4966660;28;20206;-71
2022/04/05 02:12:37;;;;;;;0.30;0.30;;;;;;;6.66;100.00;99100.06;4972056;28;20209;-72
2022/04/05 02:15:17;;;;;;;0.30;0.30;;;;;;;6.65;100.00;99108.81;4966547;28;20231;-73
2022/04/05 02:17:55;;;;;;;0.30;0.30;;;;;;;6.63;100.00;99108.81;4974973;28;20217;-76
2022/04/05 02:20:27;;;;;;;0.20;0.20;;;;;;;6.64;100.00;99107.06;4964237;28;20653;-74
2022/04/05 02:22:56;;;;;;;0.30;0.30;;;;;;;6.62;100.00;99120.19;4960985;28;20197;-72
2022/04/05 02:25:39;;;;;;;0.20;0.20;;;;;;;6.63;100.00;99132.44;4959976;28;20201;-72
2022/04/05 02:28:09;;;;;;;0.20;0.20;;;;;;;6.67;100.00;99151.72;4963493;28;20240;-72
2022/04/05 02:30:45;;;;;;;0.77;0.77;;;;;;;6.67;100.00;99147.34;4970167;28;20216;-72
2022/04/05 02:33:16;;;;;;;0.22;0.22;;;;;;;6.57;100.00;99155.19;4985998;28;20204;-72
2022/04/05 02:35:46;;;;;;;0.28;0.28;;;;;;;6.65;100.00;99170.09;4964637;28;20215;-72
2022/04/05 02:38:14;;;;;;;0.30;0.30;;;;;;;6.66;100.00;99160.47;4969230;28;20208;-72
2022/04/05 02:40:43;;;;;;;0.20;0.20;;;;;;;6.63;100.00;99158.72;4954198;28;20220;-72
2022/04/05 02:43:14;;;;;;;0.20;0.20;;;;;;;6.61;100.00;99170.09;4982474;28;20205;-72
2022/04/05 02:45:44;;;;;;;0.20;0.20;;;;;;;6.59;100.00;99174.44;4969943;28;20216;-72
2022/04/05 02:48:13;;;;;;;0.30;0.30;;;;;;;6.61;100.00;99177.97;4968039;28;20233;-72
2022/04/05 02:50:43;;;;;;;0.20;0.20;;;;;;;6.61;100.00;99183.22;4977931;28;20216;-72
2022/04/05 02:53:11;;;;;;;0.20;0.20;;;;;;;6.53;100.00;99184.94;4975104;28;20208;-72
2022/04/05 02:55:42;;;;;;;0.30;0.30;;;;;;;6.58;100.00;99186.72;4971685;28;20560;-71
2022/04/05 02:58:11;;;;;;;0.25;0.25;;;;;;;6.53;100.00;99198.94;4970583;28;20219;-71
2022/04/05 03:00:41;;;;;;;0.20;0.20;;;;;;;6.49;100.00;99199.75;4972654;28;20213;-72
2022/04/05 03:03:13;;;;;;;0.30;0.30;;;;;;;6.43;100.00;99199.72;4972597;28;20204;-72
2022/04/05 03:05:48;;;;;;;0.20;0.20;;;;;;;6.30;100.00;99204.03;4966175;28;20216;-72
2022/04/05 03:08:17;;;;;;;0.20;0.20;;;;;;;6.27;100.00;99188.25;4972180;28;20236;-72
2022/04/05 03:10:46;;;;;;;0.20;0.20;;;;;;;6.20;100.00;99202.19;4972337;28;20223;-72
2022/04/05 03:13:15;;;;;;;0.25;0.25;;;;;;;6.15;100.00;99205.66;4951661;28;20215;-72
2022/04/05 03:15:45;;;;;;;0.20;0.20;;;;;;;6.16;100.00;99205.69;4984655;28;20209;-72
2022/04/05 03:18:15;;;;;;;0.20;0.20;;;;;;;6.20;100.00;99215.31;4982508;28;20220;-71
2022/04/05 03:20:44;;;;;;;0.30;0.30;;;;;;;6.18;100.00;99229.31;4984533;28;20216;-72
2022/04/05 03:23:13;;;;;;;0.30;0.30;;;;;;;6.19;100.00;99250.31;4966717;28;20208;-71
2022/04/05 03:25:41;;;;;;;0.30;0.30;;;;;;;6.17;100.00;99256.44;4969159;28;20242;-72
2022/04/05 03:28:09;;;;;;;0.30;0.30;;;;;;;6.16;100.00;99259.91;4989640;28;20228;-71
2022/04/05 03:30:38;;;;;;;0.20;0.20;;;;;;;6.13;100.00;99258.16;4972710;28;20209;-72
2022/04/05 03:33:07;;;;;;;0.22;0.22;;;;;;;6.13;100.00;99265.13;4973842;28;20200;-75
2022/04/05 03:35:36;;;;;;;0.20;0.20;;;;;;;6.13;100.00;99273.00;4971249;28;20247;-72
2022/04/05 03:38:05;;;;;;;0.20;0.20;;;;;;;6.28;100.00;99278.38;4975804;28;20223;-74
2022/04/05 03:40:34;;;;;;;0.30;0.30;;;;;;;6.24;100.00;99284.47;4974414;28;20205;-73
2022/04/05 03:43:07;;;;;;;0.30;0.30;;;;;;;6.18;100.00;99279.19;4958738;28;20204;-72
2022/04/05 03:45:36;;;;;;;0.55;0.55;;;;;;;6.17;100.00;99272.19;4972484;28;20305;-72
2022/04/05 03:48:05;;;;;;;0.20;0.20;;;;;;;6.09;100.00;99285.22;4985904;28;20220;-72
2022/04/05 03:50:34;;;;;;;0.28;0.28;;;;;;;6.06;100.00;99288.72;4978186;28;20237;-71
2022/04/05 03:53:02;;;;;;;0.25;0.25;;;;;;;6.04;100.00;99297.44;4972327;28;20217;-71
2022/04/05 03:55:33;;;;;;;0.20;0.20;;;;;;;5.95;100.00;99300.84;4972412;28;20236;-72
2022/04/05 03:58:05;;;;;;;0.30;0.30;;;;;;;5.96;100.00;99312.22;4968564;28;20205;-71
2022/04/05 04:00:34;;;;;;;0.30;0.30;;;;;;;5.99;100.00;99328.88;4972924;28;20212;-75
2022/04/05 04:03:16;;;;;;;0.30;0.30;;;;;;;5.97;100.00;99333.25;4964550;28;20217;-72
2022/04/05 04:05:46;;;;;;;0.20;0.20;;;;;;;6.00;100.00;99333.28;4970790;28;20209;-71
2022/04/05 04:08:15;;;;;;;0.20;0.20;;;;;;;6.03;100.00;99338.53;4966066;28;20229;-71
2022/04/05 04:10:48;;;;;;;0.30;0.30;;;;;;;5.99;100.00;99346.38;4976781;28;20687;-71
2022/04/05 04:13:20;;;;;;;0.30;0.30;;;;;;;5.95;100.00;99336.72;4990244;28;20211;-72
2022/04/05 04:15:51;;;;;;;0.20;0.20;;;;;;;6.00;100.00;99351.63;4987408;28;20202;-71
2022/04/05 04:18:20;;;;;;;0.20;0.20;;;5.80;99.90;;;5.95;100.00;99353.34;4968177;28;20212;-71
2022/04/05 04:20:52;;;;;;;0.20;0.20;;;;;;;5.96;100.00;99355.09;4977712;28;20212;-71
2022/04/05 04:23:21;;;;;;;0.20;0.20;;;;;;;5.97;100.00;99359.47;4972363;28;20209;-71
2022/04/05 04:25:54;;;;;;;0.20;0.20;;;;;;;5.96;100.00;99362.97;4971979;28;20205;-72
2022/04/05 04:28:22;;;;;;;0.20;0.20;;;;;;;5.95;100.00;99362.94;4966855;28;20232;-72
2022/04/05 04:30:51;;;;;;;0.20;0.20;;;;;;;6.00;100.00;99366.50;4974290;28;20211;-71
2022/04/05 04:33:19;;;;;;;0.25;0.25;;;;;;;5.97;100.00;99366.47;4991560;28;20208;-71
2022/04/05 04:35:48;;;;;;;0.20;0.20;;;;;;;5.91;100.00;99374.28;4990593;28;20216;-72
2022/04/05 04:38:16;;;;;;;0.20;0.20;;;;;;;5.90;100.00;99368.16;4970415;28;20670;-72
2022/04/05 04:40:48;;;;;;;0.20;0.20;;;6.00;99.90;;;5.89;100.00;99384.75;4973135;28;20213;-71
2022/04/05 04:43:17;;;;;;;0.30;0.30;;;6.00;99.90;;;6.00;100.00;99391.00;4991795;28;20227;-71
2022/04/05 04:45:46;;;;;;;0.20;0.20;;;;;;;5.98;100.00;99400.59;4990946;28;20271;-72
2022/04/05 04:48:14;;;;;;;0.20;0.20;;;;;;;5.92;100.00;99404.91;4972961;28;20224;-72
2022/04/05 04:50:43;;;;;;;0.20;0.20;;;;;;;5.89;100.00;99407.47;4989572;28;20208;-71
2022/04/05 04:53:11;;;;;;;0.20;0.20;;;;;;;5.89;100.00;99405.75;4987708;28;20208;-71
2022/04/05 04:55:39;;;;;;;0.30;0.30;;;;;;;5.92;100.00;99404.91;4979986;28;20209;-71
2022/04/05 04:58:27;;;;;;;0.20;0.20;;;;;;;6.00;100.00;99409.38;4954800;28;20215;-72
2022/04/05 05:00:55;;;;;;;0.20;0.20;;;;;;;5.96;100.00;99414.56;4984761;28;20220;-73
2022/04/05 05:03:23;;;;;;;0.30;0.30;;;;;;;5.97;100.00;99418.94;4988488;28;20213;-72
2022/04/05 05:05:54;;;;;;;0.20;0.20;;;;;;;6.15;100.00;99436.66;4980166;28;20205;-70
2022/04/05 05:08:22;;;;;;;0.30;0.30;;;;;;;6.02;100.00;99431.25;4987238;28;20236;-70
2022/04/05 05:10:50;;;;;;;0.20;0.20;;;;;;;5.94;100.00;99421.53;4982137;28;20216;-70
2022/04/05 05:13:20;;;;;;;0.30;0.30;;;;;;;5.91;100.00;99425.00;4988278;28;20208;-72
2022/04/05 05:15:50;;;;;;;0.55;0.55;;;;;;;5.99;100.00;99427.72;4988054;28;20214;-72
2022/04/05 05:18:18;;;;;;;0.20;0.20;;;;;;;5.95;100.00;99429.44;4991655;28;20204;-72
2022/04/05 05:20:46;;;;;;;0.20;0.20;;;;;;;5.90;100.00;99433.75;4984323;28;20201;-72
2022/04/05 05:23:15;;;;;;;0.20;0.20;;;;;;;5.85;100.00;99430.16;4991536;28;20197;-72
2022/04/05 05:25:43;;;;;;;0.30;0.30;;;;;;;5.83;100.00;99429.25;4971387;28;20228;-72
2022/04/05 05:28:11;;;;;;;0.20;0.20;;;;;;;5.82;100.00;99442.34;4955685;28;20589;-72
2022/04/05 05:30:39;;;;;;;0.20;0.20;;;;;;;5.81;100.00;99451.97;4991645;28;20208;-72
2022/04/05 05:33:07;;;;;;;0.30;0.30;;;;;;;5.84;100.00;99453.75;4991706;28;20212;-72
2022/04/05 05:35:35;;;;;;;0.20;0.20;;;;;;;5.91;100.00;99484.47;4991058;28;20232;-72
2022/04/05 05:38:04;;;;;;;0.30;0.30;;;;;;;5.86;100.00;99470.41;4991162;28;20215;-72
2022/04/05 05:40:31;;;;;;;0.20;0.20;;;6.10;99.90;;;5.82;100.00;99469.47;4987941;28;20716;-72
2022/04/05 05:43:02;;;;;;;0.20;0.20;;;6.00;99.90;;;6.02;100.00;99489.00;4990198;28;20209;-72
2022/04/05 05:45:34;;;;;;;0.20;0.20;;;6.00;99.90;;;6.20;100.00;99492.69;4980719;28;20225;-72
2022/04/05 05:48:04;;;;;;;0.30;0.30;;;6.10;99.90;;;6.07;100.00;99484.69;4970525;28;20235;-72
2022/04/05 05:50:33;;;;;;;0.20;0.20;;;;;;;6.18;100.00;99471.69;4991488;28;20215;-71
2022/04/05 05:53:01;;;;;;;0.20;0.20;;;;;;;6.05;100.00;99461.91;4991342;28;20208;-71
2022/04/05 05:55:30;;;;;;;0.22;0.22;;;;;;;6.11;100.00;99472.47;4970537;28;20221;-71
2022/04/05 05:57:58;;;;;;;0.20;0.20;;;;;;;6.01;100.00;99479.38;4977500;28;20228;-71
2022/04/05 06:00:26;;;;;;;0.20;0.20;;;;;;;6.02;100.00;99481.13;4986536;28;20204;-71
2022/04/05 06:03:00;;;;;;;0.20;0.20;;;6.10;99.90;;;6.10;100.00;99508.34;4978665;28;20655;-74
2022/04/05 06:05:30;;;;;;;0.30;0.30;;;6.40;99.90;;;6.11;100.00;99522.34;4977220;28;20236;-74
2022/04/05 06:07:58;;;;;;;0.30;0.30;;;;;;;6.10;100.00;99538.97;4982014;28;20220;-74
2022/04/05 06:10:26;;;;;;;0.20;0.20;;;6.10;99.90;;;5.96;100.00;99536.16;4984556;28;20205;-73
2022/04/05 06:12:55;;;;;;;0.20;0.20;;;;;;;5.81;100.00;99549.03;4981640;28;20216;-73
2022/04/05 06:15:25;;;;;;;0.30;0.30;;;6.00;99.90;;;5.87;100.00;99561.38;4982317;28;20220;-72
2022/04/05 06:17:54;;;;;;;0.30;0.30;;;;;;;5.83;100.00;99568.31;4963990;28;20197;-74
2022/04/05 06:20:22;;;;;;;0.30;0.30;;;6.00;99.90;;;5.91;100.00;99581.56;4989022;28;20654;-73
2022/04/05 06:22:54;;;;;;;0.20;0.20;;;6.00;99.90;;;5.86;100.00;99594.59;4984880;28;20212;-74
2022/04/05 06:25:31;;;;;;;0.20;0.20;;;6.00;99.90;;;5.74;100.00;99592.66;4985370;28;20227;-76
2022/04/05 06:28:04;;;;;;;0.20;0.20;;;6.00;99.90;;;5.71;100.00;99605.75;4988312;28;20224;-72
2022/04/05 06:30:34;;;;;;;0.20;0.20;;;5.90;99.90;;;5.67;100.00;99616.16;4981703;28;20205;-73
2022/04/05 06:33:15;;;;;;;0.20;0.20;;;5.90;99.90;;;5.66;100.00;99627.50;4984208;28;20216;-74
2022/04/05 06:35:51;;;;;;;0.20;0.20;;;5.90;99.90;;;5.65;100.00;99631.88;4972516;28;20215;-72
2022/04/05 06:38:20;;;;;;;0.20;0.20;;;;;;;5.63;100.00;99627.47;4987889;28;20208;-74
2022/04/05 06:40:49;;;;;;;0.25;0.25;;;;;;;5.62;100.00;99637.06;4981607;28;20201;-72
2022/04/05 06:43:23;;;;;;;0.25;0.25;;;5.80;99.90;;;5.64;100.00;99639.72;4967776;28;20219;-72
2022/04/05 06:45:52;;;;;;;0.20;0.20;;;;;;;5.64;100.00;99651.09;4986597;28;20220;-78
2022/04/05 06:48:20;;;;;;;0.30;0.30;;;;;;;5.65;100.00;99647.63;4985134;28;20215;-73
2022/04/05 06:50:50;;;;;;;0.20;0.20;;;;;;;5.67;100.00;99660.75;4989361;28;20201;-72
2022/04/05 06:53:19;;;;;;;0.30;0.30;;;;;;;5.66;100.00;99666.84;4993825;28;20219;-72
2022/04/05 06:55:47;;;;;;;0.20;0.20;;;;;;;5.66;100.00;99679.97;4993705;28;20205;-72
2022/04/05 06:58:16;;;;;;;0.20;0.20;;;;;;;5.67;100.00;99685.25;4989331;28;20216;-72
2022/04/05 07:00:44;;;;;;;0.20;0.20;;;;;;;5.70;100.00;99697.53;4941008;28;20213;-71
2022/04/05 07:03:12;;;;;;;0.20;0.20;;;;;;;5.69;100.00;99695.75;4958642;28;20219;-71
2022/04/05 07:05:40;;;;;;;0.20;0.20;;;;;;;5.66;100.00;99695.72;4980134;28;20224;-72
2022/04/05 07:08:10;;;;;;;0.20;0.20;;;;;;;5.76;100.00;99706.38;4973433;28;20204;-72
2022/04/05 07:10:39;;;;;;;0.20;0.20;;;;;;;5.76;100.00;99710.75;4974402;28;20236;-71
2022/04/05 07:13:08;;;;;;;0.40;0.40;;;5.80;99.90;;;5.75;100.00;99703.72;4991260;28;20220;-71
2022/04/05 07:15:36;;;;;;;0.20;0.20;;;;;;;5.75;100.00;99708.97;4991186;28;20240;-72
2022/04/05 07:18:09;;;;;;;0.20;0.20;;;;;;;5.82;100.00;99720.47;4973153;28;20213;-71
2022/04/05 07:20:37;;;;;;;0.20;0.20;;;;;;;5.77;100.00;99738.75;4990913;28;20217;-72
2022/04/05 07:23:05;;;;;;;0.20;0.20;;;5.90;99.90;;;5.81;100.00;99737.94;4990704;28;20201;-72
2022/04/05 07:25:35;;;;;;;0.30;0.30;;;5.90;99.90;;;5.85;100.00;99746.75;4990840;28;20637;-72
2022/04/05 07:28:05;;;;;;;0.25;0.25;;;6.10;99.90;;;5.85;100.00;99738.88;4990557;28;20211;-71
2022/04/05 07:30:34;;;;;;;0.20;0.20;;;;;;;5.84;100.00;99737.09;4991975;28;20231;-72
2022/04/05 07:33:02;;;;;;;0.20;0.20;;;5.80;99.90;;;5.88;100.00;99739.81;4973997;28;20213;-72
2022/04/05 07:35:30;;;;;;;0.20;0.20;;;;;;;5.93;100.00;99739.91;4969237;28;20237;-71
2022/04/05 07:37:59;;;;;;;0.20;0.20;;;;;;;5.97;100.00;99747.88;4978259;28;20215;-72
2022/04/05 07:40:47;;;;;;;0.20;0.20;;;;;;;6.01;100.00;99740.94;4990218;28;20212;-72
2022/04/05 07:43:23;;;;;;;0.20;0.20;;;6.10;99.90;;;6.02;100.00;99747.94;4987038;28;20201;-77
2022/04/05 07:45:53;;;;;;;0.20;0.20;;;6.10;99.90;;;6.00;100.00;99744.41;4985962;28;20231;-71
2022/04/05 07:48:26;;;;;;;0.20;0.20;;;6.10;99.90;;;6.01;100.00;99733.06;4988405;28;20220;-71
2022/04/05 07:50:55;;;;;;;0.20;0.20;;;6.10;99.90;;;6.01;100.00;99728.69;4990065;28;20244;-72
2022/04/05 07:53:23;;;;;;;0.20;0.20;;;;;;;6.03;100.00;99742.72;4990222;28;20204;-72
2022/04/05 07:55:54;;;;;;;0.20;0.20;;;;;;;6.05;100.00;99741.00;4989756;28;20209;-72
2022/04/05 07:58:23;;;;;;;0.20;0.20;;;;;;;6.04;100.00;99747.09;4989433;28;20205;-72
2022/04/05 08:00:52;;;;;;;0.20;0.20;;;;;;;6.08;100.00;99750.66;4969999;28;20209;-72
2022/04/05 08:03:22;;;;;;;0.20;0.20;;;;;;;6.10;100.00;99755.09;4969340;28;20220;-72
2022/04/05 08:05:51;;;;;;;0.20;0.20;;;;;;;6.13;100.00;99756.00;4986366;28;20208;-72
2022/04/05 08:08:19;;;;;;;0.30;0.30;;;;;;;6.14;100.00;99753.38;4990540;28;20213;-72
2022/04/05 08:11:07;;;;;;;0.20;0.20;;;;;;;6.17;100.00;99756.06;4988776;28;20236;-72
2022/04/05 08:13:36;;;;;;;0.30;0.30;;;;;;;6.23;100.00;99757.91;4990154;28;20231;-72
2022/04/05 08:16:04;;;;;;;0.20;0.20;;;6.30;99.90;;;6.22;100.00;99753.50;4972858;28;20212;-72
2022/04/05 08:18:33;;;;;;;0.20;0.20;;;;;;;6.21;100.00;99763.13;4988351;28;20669;-72
2022/04/05 08:21:01;;;;;;;0.20;0.20;;;;;;;6.20;100.00;99756.09;4988902;28;20235;-72
2022/04/05 08:23:29;;;;;;;0.20;0.20;;;;;;;6.23;100.00;99764.03;4972087;28;20220;-72
2022/04/05 08:25:58;;;;;;;0.20;0.20;;;;;;;6.24;100.00;99763.16;4969859;28;20209;-71
2022/04/05 08:28:26;;;;;;;0.30;0.30;;;;;;;6.27;100.00;99757.97;4965412;28;20209;-72
2022/04/05 08:30:55;;;;;;;0.20;0.20;;;;;;;6.34;100.00;99775.59;4988914;28;20231;-72
2022/04/05 08:33:27;;;;;;;0.20;0.20;;;6.40;99.90;;;6.32;100.00;99769.44;4985045;28;20645;-71
2022/04/05 08:36:00;;;;;;;0.20;0.20;;;;;;;6.36;100.00;99767.72;4984094;28;20223;-71
2022/04/05 08:38:28;;;;;;;0.20;0.20;;;;;;;6.36;100.00;99770.34;4984796;28;20654;-72
2022/04/05 08:41:00;;;;;;;0.30;0.30;;;6.40;99.90;;;6.38;100.00;99776.50;4981935;28;20680;-72
2022/04/05 08:43:29;;;;;;;0.20;0.20;;;;;;;6.38;100.00;99779.13;4965314;28;20208;-71
2022/04/05 08:46:03;;;;;;;0.20;0.20;;;6.50;99.90;;;6.44;100.00;99781.84;4989162;28;20216;-72
2022/04/05 08:48:35;;;;;;;1.05;1.05;;;6.50;99.90;;;6.41;100.00;99782.69;4988098;28;20223;-71
2022/04/05 08:51:04;;;;;;;0.20;0.20;;;;;;;6.45;100.00;99791.50;4988268;28;20236;-72
2022/04/05 08:53:33;;;;;;;0.20;0.20;;;;;;;6.46;100.00;99790.66;4956611;28;20247;-72
2022/04/05 08:56:02;;;;;;;0.20;0.20;;;6.50;99.90;;;6.47;100.00;99802.91;4988412;28;20212;-72
2022/04/05 08:58:30;;;;;;;0.20;0.20;;;;;;;6.51;100.00;99807.38;4985925;28;20229;-72
2022/04/05 09:00:59;;;;;;;0.20;0.20;;;;;;;6.58;100.00;99808.38;4971679;28;20205;-72
2022/04/05 09:03:32;;;;;;;0.20;0.20;;;;;;;6.57;100.00;99806.59;4967736;28;20208;-74
2022/04/05 09:06:28;;;;;;;0.17;0.17;;;6.60;99.90;;;6.63;100.00;99806.69;4965720;28;20213;-72
2022/04/05 09:09:14;;;;;;;0.20;0.20;;;6.60;99.90;;;6.66;100.00;99798.84;4983811;28;20236;-74
2022/04/05 09:11:56;;;;;;;0.20;0.20;;;6.70;99.90;;;6.69;100.00;99801.53;4971331;28;20224;-73
2022/04/05 09:14:27;;;;;;;0.40;0.40;;;6.70;99.90;;;6.73;100.00;99805.97;4972055;28;20229;-72
2022/04/05 09:17:08;;;;;;;0.10;0.10;;;6.80;99.90;;;6.80;100.00;99797.31;4989336;28;20232;-72
2022/04/05 09:19:47;;;;;;;0.20;0.20;;;6.80;99.90;;;6.79;100.00;99813.94;4969276;28;20653;-72
2022/04/05 09:22:18;;;;;;;0.20;0.20;;;;;;;6.87;100.00;99811.41;4979397;28;20740;-72
2022/04/05 09:24:47;;;;;;;0.20;0.20;;;;;;;6.88;100.00;99818.44;4967996;28;20244;-72
2022/04/05 09:27:15;;;;;;;0.10;0.10;;;;;;;6.90;100.00;99814.09;4977749;28;20577;-72
2022/04/05 09:29:50;;;;;;;0.20;0.20;;;6.90;99.90;;;7.00;100.00;99811.59;4970439;28;20672;-73
2022/04/05 09:32:37;;;;;;;0.20;0.20;;;7.00;99.90;;;7.27;100.00;99804.91;4981750;28;20208;-72
2022/04/05 09:35:06;;;;;;;0.20;0.20;;;7.20;99.90;;;7.26;100.00;99788.25;4979890;28;20244;-72
2022/04/05 09:37:36;;;;;;;0.20;0.20;;;;;;;7.13;100.00;99781.09;4988513;28;20209;-72
2022/04/05 09:40:26;;;;;;;0.20;0.20;;;7.60;99.90;;;7.07;100.00;99784.53;4989017;28;20205;-72
2022/04/05 09:43:15;;;;;;;0.20;0.20;;;7.20;99.90;;;7.21;100.00;99792.59;4984837;28;20214;-72
2022/04/05 09:45:53;;;;;;;0.10;0.10;;;7.20;99.90;;;7.23;100.00;99792.59;4988440;28;20209;-72
2022/04/05 09:48:28;;;;;;;0.15;0.15;;;7.10;99.90;;;7.23;100.00;99792.59;4984444;28;20201;-72
2022/04/05 09:51:12;;;;;;;0.20;0.20;;;7.20;99.90;;;7.28;100.00;99793.53;4986320;28;20234;-72
2022/04/05 09:53:43;;;;;;;0.20;0.20;;;;;;;7.50;100.00;99799.94;4960054;28;20232;-72
2022/04/05 09:56:30;;;;;;;0.20;0.20;;;7.40;99.90;;;7.41;100.00;99787.56;4978885;28;20570;-72
2022/04/05 09:59:04;;;;;;;0.20;0.20;;;;;;;7.46;100.00;99788.50;4984954;28;20212;-73
2022/04/05 10:01:36;;;;;;;0.20;0.20;;;7.50;99.90;;;7.61;100.00;99790.41;4990304;28;20207;-74
2022/04/05 10:04:06;;;;;;;0.20;0.20;;;7.60;99.90;;;7.72;100.00;99792.28;4992305;28;20239;-73
2022/04/05 10:06:41;;;;;;;0.20;0.20;;;7.60;99.90;;;7.65;100.00;99779.03;4992206;28;20208;-79
2022/04/05 10:09:11;;;;;;;0.10;0.10;;;7.70;99.90;;;7.69;100.00;99783.47;4991946;28;20227;-76
2022/04/05 10:11:41;;;;;;;0.20;0.20;;;7.70;99.90;;;7.84;100.00;99785.41;4971184;28;20240;-74
2022/04/05 10:14:13;;;;;;;0.20;0.20;;;7.80;99.90;;;7.91;100.00;99790.75;4992030;28;20220;-73
2022/04/05 10:16:41;;;;;;;0.20;0.20;;;;;;;7.92;100.00;99778.47;4975651;28;20212;-76
2022/04/05 10:19:11;;;;;;;0.20;0.20;;;7.90;99.90;;;8.05;100.00;99779.44;4974511;28;20201;-71
2022/04/05 10:21:43;;;;;;;0.10;0.10;;;8.00;99.90;;;7.98;100.00;99767.97;4992724;28;20212;-73
2022/04/05 10:24:12;;;;;;;0.10;0.10;;;;;;;7.99;100.00;99765.38;4992195;28;20224;-73
2022/04/05 10:26:46;;;;;;;0.20;0.20;;;8.00;99.90;;;8.03;100.00;99776.81;4975684;28;20209;-76
2022/04/05 10:29:17;;;;;;;0.10;0.10;;;8.00;99.90;;;8.12;100.00;99774.25;4991532;28;20214;-73
2022/04/05 10:32:05;;;;;;;0.20;0.20;;;8.00;99.90;;;8.00;100.00;99772.38;4974277;28;20243;-73
2022/04/05 10:34:53;;;;;;;0.20;0.20;;;8.10;99.90;;;8.15;100.00;99781.28;4987945;28;20662;-73
2022/04/05 10:37:34;;;;;;;0.10;0.10;;;8.10;99.90;;;8.26;100.00;99774.34;4983285;28;20205;-73
2022/04/05 10:40:02;;;;;;;0.10;0.10;;;;;;;8.30;100.00;99774.38;4991145;28;20213;-73
2022/04/05 10:42:36;;;;;;;0.20;0.20;;;8.20;99.90;;;8.34;100.00;99770.94;4990874;28;20205;-74
2022/04/05 10:45:25;;;;;;;0.20;0.20;;;8.30;99.90;;;8.39;100.00;99768.34;4990951;28;20228;-73
2022/04/05 10:48:20;;;;;;;0.20;0.20;;;8.30;99.90;;;8.44;100.00;99763.09;4991004;28;20296;-75
2022/04/05 10:51:00;;;;;;;0.20;0.20;;;8.40;99.90;;;8.40;100.00;99759.56;4991908;28;20235;-73
2022/04/05 10:54:17;;;;;;;0.20;0.20;;;8.40;99.90;;;8.41;100.00;99749.91;4991331;28;20212;-73
2022/04/05 10:56:27;;;;;;;0.20;0.20;;;;;;;8.51;100.00;99765.78;4980354;28;20198;-73
2022/04/05 10:59:05;;;;;;;0.20;0.20;;;;;;;8.52;100.00;99770.19;4973720;28;20216;-73
2022/04/05 11:01:44;;;;;;;0.20;0.20;;;8.50;99.90;;;8.52;100.00;99745.59;4980025;28;20209;-73
2022/04/05 11:04:18;;;;;;;0.10;0.10;;;;;;;8.52;100.00;99746.47;4973975;28;20232;-73
2022/04/05 11:06:59;;;;;;;0.20;0.20;;;8.60;99.90;;;8.54;100.00;99744.72;4974052;28;20208;-73
2022/04/05 11:09:35;;;;;;;0.20;0.20;;;8.60;99.90;;;8.58;100.00;99750.91;4973935;28;20204;-73
2022/04/05 11:12:08;;;;;;;0.20;0.20;;;8.60;99.90;;;8.64;100.00;99753.56;4979622;28;20220;-73
2022/04/05 11:14:50;;;;;;;0.20;0.20;;;8.80;99.90;;;8.65;100.00;99752.69;4971345;28;20239;-74
2022/04/05 11:17:21;;;;;;;0.20;0.20;;;8.70;99.90;;;8.67;100.00;99756.22;4970115;28;20201;-73
2022/04/05 11:19:53;;;;;;;0.10;0.10;;;8.70;99.90;;;8.77;100.00;99760.66;4972617;28;20213;-73
2022/04/05 11:22:22;;;;;;;0.20;0.20;;;;;;;8.78;100.00;99767.72;4991158;28;20680;-73
2022/04/05 11:24:50;;;;;;;0.20;0.20;;;;;;;8.81;100.00;99757.19;4969728;28;20233;-72
2022/04/05 11:27:45;;;;;;;0.40;0.40;;;8.80;99.90;;;8.81;100.00;99761.56;4968425;28;20204;-72
2022/04/05 11:30:26;;;;;;;0.57;0.57;;;8.80;99.90;;;8.81;100.00;99756.28;4972716;28;20220;-72